Terminal Aerodrome Forecast
Issued by NWS Louisville, KY

Home | Current Version | Previous Version | Text Only | Print | Product List | Glossary On
Versions: 1 2 3 4 5 6 7 8 9 10 11 12 13
000
FTUS43 KLMK 271400 AAA
TAFSDF
TAF AMD
KSDF 271443Z 2715/2818 17006KT P6SM VCSH BKN019 OVC035
     FM271900 21007KT 5SM -RA BR BKN015
     FM280000 VRB06KT 4SM -RA BR BKN008=

USA.gov is the U.S. government's official web portal to all federal, state and local government web resources and services.